This is the latest recevied weather packets stored in our database for station/object N7WLC. If no packets are shown the sender has not sent any weather packets the latest 10 day(s).
| Time | Temp. | Humidity | Pressure | Rain* | Wind** | Luminosity | Snow |
|---|---|---|---|---|---|---|---|
| 1777468234 | 8.33° C | 81% | 1017.5 hPa | 0 mm | 0 m/s | - | - |
| 1777466433 | 8.33° C | 80% | 1017.3 hPa | 0 mm | 0 m/s | - | - |
| 1777464634 | 8.89° C | 76% | 1017.3 hPa | 0 mm | 0 m/s | - | - |
| 1777462834 | 10° C | 73% | 1016.8 hPa | 0 mm | 0 m/s | - | - |
| 1777461033 | 10° C | 72% | 1016.5 hPa | 0 mm | 0 m/s | - | - |
| 1777459234 | 10° C | 72% | 1016.5 hPa | 0 mm | 0 m/s | - | - |
| 1777457433 | 10° C | 72% | 1016.5 hPa | 0 mm | 0 m/s | - | - |
| 1777455633 | 10° C | 71% | 1016.3 hPa | 0 mm | 0 m/s | - | - |
| 1777453834 | 10.56° C | 69% | 1016.5 hPa | 0 mm | 0 m/s | - | - |
| 1777452034 | 11.11° C | 69% | 1016.7 hPa | 0 mm | 0 m/s | - | - |
| 1777450234 | 10.56° C | 71% | 1017.2 hPa | 0 mm | 0 m/s | - | - |
| 1777448434 | 10.56° C | 69% | 1017.3 hPa | 0 mm | 0 m/s | - | - |
| 1777446633 | 11.11° C | 69% | 1017.1 hPa | 0 mm | 0 m/s | - | - |
| 1777444834 | 11.67° C | 69% | 1017.2 hPa | 0 mm | 0 m/s | - | - |
| 1777443034 | 11.67° C | 69% | 1017.4 hPa | 0 mm | 0 m/s | - | - |
| 1777441233 | 11.11° C | 70% | 1017.2 hPa | 0 mm | 0 m/s | - | - |
| 1777439434 | 11.67° C | 70% | 1017.5 hPa | 0 mm | 0 m/s | - | - |
| 1777437633 | 11.67° C | 70% | 1017.6 hPa | 0 mm | 0 m/s | - | - |
| 1777435834 | 12.22° C | 66% | 1017.1 hPa | 0 mm | 0 m/s | - | - |
| 1777434034 | 12.78° C | 68% | 1017 hPa | 0 mm | 0 m/s | - | - |
| 1777432233 | 13.33° C | 64% | 1016.8 hPa | 0 mm | 0 m/s | - | - |
| 1777430434 | 14.44° C | 60% | 1016.5 hPa | 0 mm | 0 m/s | - | - |
| 1777428634 | 16.11° C | 57% | 1016.5 hPa | 0 mm | 0 m/s | - | - |
| 1777426833 | 16.67° C | 54% | 1016.2 hPa | 0 mm | 0 m/s | - | - |
| 1777425034 | 17.78° C | 49% | 1016.3 hPa | 0 mm | 0.89 m/s, 252° | - | - |
* Rain latest hour (hover to see other rain measurements)
** Current wind speed in m/s (hover to see current wind gust speed)